Time;durP1;ratioP1;P1;durP2;ratioP2;P2;SDS_P1;SDS_P2;PMS_P1;PMS_P2;Temp;Humidity;BMP_temperature;BMP_pressure;BME280_temperature;BME280_humidity;BME280_pressure;Samples;Min_cycle;Max_cycle;Signal;HPM_P1;HPM_P2
2022/11/10 00:00:01;;;;;;;;;;;11.80;99.90;;;;;;5085557;28;19913;-77
2022/11/10 00:02:26;;;;;;;;;;;11.80;99.90;;;;;;5103839;28;19946;-77
2022/11/10 00:04:52;;;;;;;;;;;11.70;99.90;;;;;;5103781;28;19962;-76
2022/11/10 00:07:18;;;;;;;;;;;11.70;99.90;;;;;;5103529;28;20049;-76
2022/11/10 00:09:43;;;;;;;;;;;11.70;99.90;;;;;;5085774;28;19908;-76
2022/11/10 00:12:09;;;;;;;;;;;11.70;99.90;;;;;;5103557;28;19908;-76
2022/11/10 00:17:19;;;;;;;;;;;11.70;99.90;;;;;;5112093;28;19930;-77
2022/11/10 00:19:45;;;;;;;;;;;11.60;99.90;;;;;;5106182;28;19924;-76
2022/11/10 00:22:10;;;;;;;;;;;11.60;99.90;;;;;;5102949;28;19938;-76
2022/11/10 00:24:36;;;;;;;;;;;11.60;99.90;;;;;;5102653;28;20065;-76
2022/11/10 00:27:02;;;;;;;;;;;11.60;99.90;;;;;;5101025;28;19908;-76
2022/11/10 00:29:27;;;;;;;;;;;11.50;99.90;;;;;;5105285;28;19953;-76
2022/11/10 00:31:53;;;;;;;;;;;11.60;99.90;;;;;;5106935;28;19923;-76
2022/11/10 00:34:19;;;;;;;;;;;11.50;99.90;;;;;;5106598;28;19914;-76
2022/11/10 00:36:44;;;;;;;;;;;11.50;99.90;;;;;;5088502;28;19916;-75
2022/11/10 00:39:10;;;;;;;;;;;11.50;99.90;;;;;;5088253;28;19908;-75
2022/11/10 00:41:36;;;;;;;;;;;11.50;99.90;;;;;;5106517;28;19908;-75
2022/11/10 00:44:01;;;;;;;;;;;11.40;99.90;;;;;;5106714;28;19973;-75
2022/11/10 00:46:27;;;;;;;;;;;11.40;99.90;;;;;;5106370;28;19916;-75
2022/11/10 00:48:53;;;;;;;;;;;11.40;99.90;;;;;;5088491;28;20000;-75
2022/11/10 00:51:23;;;;;;;;;;;11.40;99.90;;;;;;5088465;28;20203;-76
2022/11/10 00:53:49;;;;;;;;;;;11.40;99.90;;;;;;5106409;28;19915;-75
2022/11/10 00:56:15;;;;;;;;;;;11.30;99.90;;;;;;5088012;28;19912;-74
2022/11/10 00:58:41;;;;;;;;;;;11.30;99.90;;;;;;5106323;28;20141;-75
2022/11/10 01:01:06;;;;;;;;;;;11.30;99.90;;;;;;5088311;28;19912;-75
2022/11/10 01:03:32;;;;;;;;;;;11.20;99.90;;;;;;5083684;28;20123;-75
2022/11/10 01:05:58;;;;;;;;;;;11.20;99.90;;;;;;5084743;28;19916;-74
2022/11/10 01:08:24;;;;;;;;;;;11.20;99.90;;;;;;5055231;28;19908;-75
2022/11/10 01:10:49;;;;;;;;;;;11.20;99.90;;;;;;5106091;28;19915;-75
2022/11/10 01:13:15;;;;;;;;;;;11.20;99.90;;;;;;5087786;28;19908;-75
2022/11/10 01:15:41;;;;;;;;;;;11.20;99.90;;;;;;5088090;28;19916;-75
2022/11/10 01:18:07;;;;;;;;;;;11.20;99.90;;;;;;5070924;28;19915;-75
2022/11/10 01:20:33;;;;;;;;;;;11.20;99.90;;;;;;5087984;28;20078;-75
2022/11/10 01:22:58;;;;;;;;;;;11.20;99.90;;;;;;5087931;28;19908;-75
2022/11/10 01:25:24;;;;;;;;;;;11.10;99.90;;;;;;5087946;28;19975;-75
2022/11/10 01:27:50;;;;;;;;;;;11.10;99.90;;;;;;5087241;28;19908;-75
2022/11/10 01:30:16;;;;;;;;;;;11.10;99.90;;;;;;5087892;28;20222;-75
2022/11/10 01:32:41;;;;;;;;;;;11.00;99.90;;;;;;5104581;28;20111;-75
2022/11/10 01:35:07;;;;;;;;;;;10.90;99.90;;;;;;5087469;28;19916;-74
2022/11/10 01:37:33;;;;;;;;;;;10.90;99.90;;;;;;5105320;28;19960;-75
2022/11/10 01:39:59;;;;;;;;;;;10.90;99.90;;;;;;5105009;28;19935;-75
2022/11/10 01:42:57;;;;;;;;;;;10.80;99.90;;;;;;5105315;28;19908;-75
2022/11/10 01:45:22;;;;;;;;;;;10.80;99.90;;;;;;5054300;28;19987;-75
2022/11/10 01:47:52;;;;;;;;;;;10.70;99.90;;;;;;5104980;28;19908;-75
2022/11/10 01:50:18;;;;;;;;;;;10.70;99.90;;;;;;5087372;28;19975;-75
2022/11/10 01:52:46;;;;;;;;;;;10.60;99.90;;;;;;5087247;28;19957;-74
2022/11/10 01:55:11;;;;;;;;;;;10.60;99.90;;;;;;5105271;28;19908;-74
2022/11/10 01:57:37;;;;;;;;;;;10.50;99.90;;;;;;5104610;28;19935;-74
2022/11/10 02:00:03;;;;;;;;;;;10.50;99.90;;;;;;5105051;28;19920;-75
2022/11/10 02:02:35;;;;;;;;;;;10.50;99.90;;;;;;5105168;28;19908;-74
2022/11/10 02:05:01;;;;;;;;;;;10.50;99.90;;;;;;5087339;28;20243;-74
2022/11/10 02:07:26;;;;;;;;;;;10.40;99.90;;;;;;5086762;28;19908;-75
2022/11/10 02:09:52;;;;;;;;;;;10.30;99.90;;;;;;5069150;28;19923;-75
2022/11/10 02:12:35;;;;;;;;;;;10.30;99.90;;;;;;5086806;28;19923;-75
2022/11/10 02:15:05;;;;;;;;;;;10.30;99.90;;;;;;5089489;28;20063;-75
2022/11/10 02:17:30;;;;;;;;;;;10.30;99.90;;;;;;5053008;28;20088;-75
2022/11/10 02:20:01;;;;;;;;;;;10.30;99.90;;;;;;5086671;28;19923;-75
2022/11/10 02:22:26;;;;;;;;;;;10.30;99.90;;;;;;5087061;28;20429;-75
2022/11/10 02:24:52;;;;;;;;;;;10.30;99.90;;;;;;5104574;28;19920;-75
2022/11/10 02:27:17;;;;;;;;;;;10.20;99.90;;;;;;5103984;28;19938;-75
2022/11/10 02:29:43;;;;;;;;;;;10.20;99.90;;;;;;5104669;28;19908;-75
2022/11/10 02:32:09;;;;;;;;;;;10.20;99.90;;;;;;5086555;28;19908;-75
2022/11/10 02:34:34;;;;;;;;;;;10.20;99.90;;;;;;5104408;28;19908;-75
2022/11/10 02:37:00;;;;;;;;;;;10.20;99.90;;;;;;5104106;28;20167;-75
2022/11/10 02:39:26;;;;;;;;;;;10.10;99.90;;;;;;5104254;28;19907;-76
2022/11/10 02:41:51;;;;;;;;;;;10.00;99.90;;;;;;5104014;28;19908;-76
2022/11/10 02:44:17;;;;;;;;;;;10.10;99.90;;;;;;5086057;28;20132;-76
2022/11/10 02:46:43;;;;;;;;;;;10.10;99.90;;;;;;5103883;28;19969;-76
2022/11/10 02:49:08;;;;;;;;;;;10.00;99.90;;;;;;5103988;28;19915;-76
2022/11/10 02:51:34;;;;;;;;;;;10.00;99.90;;;;;;5103150;28;19916;-76
2022/11/10 02:54:00;;;;;;;;;;;10.00;99.90;;;;;;5103971;28;19915;-76
2022/11/10 02:56:25;;;;;;;;;;;10.00;99.90;;;;;;5103752;28;19912;-75
2022/11/10 02:58:51;;;;;;;;;;;10.00;99.90;;;;;;5103660;28;19983;-75
2022/11/10 03:01:16;;;;;;;;;;;10.00;99.90;;;;;;5069069;28;19912;-75
2022/11/10 03:03:42;;;;;;;;;;;9.90;99.90;;;;;;5103820;28;20106;-74
2022/11/10 03:06:08;;;;;;;;;;;9.90;99.90;;;;;;5103518;28;19908;-75
2022/11/10 03:08:33;;;;;;;;;;;9.90;99.90;;;;;;5085575;28;19923;-76
2022/11/10 03:10:59;;;;;;;;;;;9.90;99.90;;;;;;5085830;28;20371;-75
2022/11/10 03:13:25;;;;;;;;;;;9.80;99.90;;;;;;5085713;28;19908;-75
2022/11/10 03:15:51;;;;;;;;;;;9.80;99.90;;;;;;5085891;28;19935;-76
2022/11/10 03:18:16;;;;;;;;;;;9.80;99.90;;;;;;5085243;28;19912;-76
2022/11/10 03:20:42;;;;;;;;;;;9.80;99.90;;;;;;5103382;28;19916;-75
2022/11/10 03:23:08;;;;;;;;;;;9.80;99.90;;;;;;5085280;28;19915;-75
2022/11/10 03:25:33;;;;;;;;;;;9.80;99.90;;;;;;5085409;28;19916;-75
2022/11/10 03:27:59;;;;;;;;;;;9.80;99.90;;;;;;5084679;28;20215;-75
2022/11/10 03:30:25;;;;;;;;;;;9.80;99.90;;;;;;5068720;28;19908;-75
2022/11/10 03:32:51;;;;;;;;;;;9.80;99.90;;;;;;5103144;28;19909;-75
2022/11/10 03:35:17;;;;;;;;;;;9.70;99.90;;;;;;5085244;28;19938;-75
2022/11/10 03:37:43;;;;;;;;;;;9.80;99.90;;;;;;5102861;28;19907;-75
2022/11/10 03:40:09;;;;;;;;;;;9.70;99.90;;;;;;5103116;28;19920;-75
2022/11/10 03:42:35;;;;;;;;;;;9.70;99.90;;;;;;5084763;28;19916;-75
2022/11/10 03:45:00;;;;;;;;;;;9.70;99.90;;;;;;5101906;28;20122;-75
2022/11/10 03:47:26;;;;;;;;;;;9.70;99.90;;;;;;5102703;28;19945;-75
2022/11/10 03:49:52;;;;;;;;;;;9.70;99.90;;;;;;5102588;28;19908;-75
2022/11/10 03:52:17;;;;;;;;;;;9.70;99.90;;;;;;5084934;28;19914;-75
2022/11/10 03:54:43;;;;;;;;;;;9.70;99.90;;;;;;5084778;28;19908;-76
2022/11/10 03:57:09;;;;;;;;;;;9.70;99.90;;;;;;5084280;28;19915;-76
2022/11/10 03:59:35;;;;;;;;;;;9.70;99.90;;;;;;5067995;28;20211;-76
2022/11/10 04:02:00;;;;;;;;;;;9.70;99.90;;;;;;5084377;28;19916;-76
2022/11/10 04:09:58;;;;;;;;;;;9.60;99.90;;;;;;5087309;28;20176;-76
2022/11/10 04:18:19;;;;;;;;;;;9.30;99.90;;;;;;5102100;28;19980;-76
2022/11/10 04:20:44;;;;;;;;;;;9.30;99.90;;;;;;5102270;28;19998;-76
2022/11/10 04:26:29;;;;;;;;;;;9.20;99.90;;;;;;5048631;28;19916;-76
2022/11/10 04:28:59;;;;;;;;;;;9.10;99.90;;;;;;5059934;28;19972;-76
2022/11/10 04:31:26;;;;;;;;;;;9.00;99.90;;;;;;5051243;28;20118;-76
2022/11/10 04:33:52;;;;;;;;;;;8.90;99.90;;;;;;5084269;28;20223;-75
2022/11/10 04:36:19;;;;;;;;;;;8.90;99.90;;;;;;5067399;28;19908;-75
2022/11/10 04:38:44;;;;;;;;;;;8.80;99.90;;;;;;5102315;28;19916;-76
2022/11/10 04:41:10;;;;;;;;;;;8.80;99.90;;;;;;5101287;28;19942;-76
2022/11/10 04:43:36;;;;;;;;;;;8.70;99.90;;;;;;5067475;28;19908;-76
2022/11/10 04:46:02;;;;;;;;;;;8.70;99.90;;;;;;5084205;28;20118;-75
2022/11/10 04:48:28;;;;;;;;;;;8.70;99.90;;;;;;5084154;28;19908;-75
2022/11/10 04:50:54;;;;;;;;;;;8.60;99.90;;;;;;5102194;28;20167;-75
2022/11/10 04:53:19;;;;;;;;;;;8.60;99.90;;;;;;5101212;28;20088;-76
2022/11/10 04:55:45;;;;;;;;;;;8.60;99.90;;;;;;5084426;28;19908;-76
2022/11/10 04:58:11;;;;;;;;;;;8.50;99.90;;;;;;5083700;28;19975;-76
2022/11/10 05:00:37;;;;;;;;;;;8.50;99.90;;;;;;5084117;28;19912;-75
2022/11/10 05:03:04;;;;;;;;;;;8.50;99.90;;;;;;5102096;28;19908;-75
2022/11/10 05:05:30;;;;;;;;;;;8.50;99.90;;;;;;5084159;28;19908;-75
2022/11/10 05:07:56;;;;;;;;;;;8.50;99.90;;;;;;5083739;28;19987;-75
2022/11/10 05:10:22;;;;;;;;;;;8.40;99.90;;;;;;5100855;28;20207;-75
2022/11/10 05:12:47;;;;;;;;;;;8.50;99.90;;;;;;5100694;28;19927;-76
2022/11/10 05:15:13;;;;;;;;;;;8.50;99.90;;;;;;5104187;28;20335;-75
2022/11/10 05:17:39;;;;;;;;;;;8.40;99.90;;;;;;5087076;28;20146;-76
2022/11/10 05:20:05;;;;;;;;;;;8.30;99.90;;;;;;5104259;28;19924;-75
2022/11/10 05:22:31;;;;;;;;;;;8.20;99.90;;;;;;5105956;28;19908;-75
2022/11/10 05:24:56;;;;;;;;;;;8.20;99.90;;;;;;5104461;28;20018;-76
2022/11/10 05:27:22;;;;;;;;;;;8.10;99.90;;;;;;5105028;28;20279;-76
2022/11/10 05:29:48;;;;;;;;;;;8.00;99.90;;;;;;5087412;28;19966;-75
2022/11/10 05:32:13;;;;;;;;;;;8.00;99.90;;;;;;5105434;28;19994;-75
2022/11/10 05:34:39;;;;;;;;;;;8.00;99.90;;;;;;5104402;28;19961;-75
2022/11/10 05:37:05;;;;;;;;;;;8.00;99.90;;;;;;5103856;28;19999;-75
2022/11/10 05:39:30;;;;;;;;;;;7.90;99.90;;;;;;5104997;28;19950;-75
2022/11/10 05:41:56;;;;;;;;;;;7.90;99.90;;;;;;5105094;28;19908;-75
2022/11/10 05:44:22;;;;;;;;;;;8.00;99.90;;;;;;5104915;28;19915;-75
2022/11/10 05:46:47;;;;;;;;;;;8.00;99.90;;;;;;5103501;28;20111;-75
2022/11/10 05:49:13;;;;;;;;;;;8.00;99.90;;;;;;5105215;28;19979;-75
2022/11/10 05:51:38;;;;;;;;;;;8.00;99.90;;;;;;5087068;28;19931;-75
2022/11/10 05:54:04;;;;;;;;;;;8.00;99.90;;;;;;5070161;28;19916;-75
2022/11/10 05:56:30;;;;;;;;;;;7.90;99.90;;;;;;5086818;28;19908;-75
2022/11/10 05:58:55;;;;;;;;;;;8.00;99.90;;;;;;5104619;28;19981;-75
2022/11/10 06:01:21;;;;;;;;;;;8.00;99.90;;;;;;5086523;28;20157;-75
2022/11/10 06:03:47;;;;;;;;;;;8.00;99.90;;;;;;5103877;28;19970;-75
2022/11/10 06:06:12;;;;;;;;;;;8.00;99.90;;;;;;5099288;28;19912;-75
2022/11/10 06:08:38;;;;;;;;;;;8.00;99.90;;;;;;5093514;28;20207;-75
2022/11/10 06:11:04;;;;;;;;;;;7.90;99.90;;;;;;5078084;28;20114;-75
2022/11/10 06:13:30;;;;;;;;;;;7.90;99.90;;;;;;5074463;28;19919;-75
2022/11/10 06:15:55;;;;;;;;;;;7.80;99.90;;;;;;5076341;28;19957;-76
2022/11/10 06:18:21;;;;;;;;;;;7.80;99.90;;;;;;5093548;28;20233;-75
2022/11/10 06:20:47;;;;;;;;;;;7.80;99.90;;;;;;5098454;28;20033;-76
2022/11/10 06:23:12;;;;;;;;;;;7.80;99.90;;;;;;5104262;28;19908;-76
2022/11/10 06:25:38;;;;;;;;;;;7.80;99.90;;;;;;5104198;28;19908;-76
2022/11/10 06:28:05;;;;;;;;;;;7.80;99.90;;;;;;5083074;28;19927;-76
2022/11/10 06:30:31;;;;;;;;;;;7.90;99.90;;;;;;5082638;28;19912;-76
2022/11/10 06:32:57;;;;;;;;;;;7.90;99.90;;;;;;5074132;28;19923;-76
2022/11/10 06:35:23;;;;;;;;;;;7.80;99.90;;;;;;5067141;28;19908;-76
2022/11/10 06:37:59;;;;;;;;;;;7.80;99.90;;;;;;5083753;28;19920;-76
2022/11/10 06:40:25;;;;;;;;;;;7.80;99.90;;;;;;5092276;28;19920;-75
2022/11/10 06:42:50;;;;;;;;;;;7.80;99.90;;;;;;5093844;28;19915;-75
2022/11/10 06:45:16;;;;;;;;;;;7.70;99.90;;;;;;5103647;28;19908;-75
2022/11/10 06:47:42;;;;;;;;;;;7.70;99.90;;;;;;5103639;28;20000;-75
2022/11/10 06:50:08;;;;;;;;;;;7.70;99.90;;;;;;5119572;28;20226;-75
2022/11/10 06:52:34;;;;;;;;;;;7.70;99.90;;;;;;5104023;28;19953;-76
2022/11/10 06:55:00;;;;;;;;;;;7.70;99.90;;;;;;5102803;28;19908;-76
2022/11/10 06:57:26;;;;;;;;;;;7.70;99.90;;;;;;5102151;28;19908;-76
2022/11/10 06:59:51;;;;;;;;;;;7.70;99.90;;;;;;5102332;28;19975;-75
2022/11/10 07:02:17;;;;;;;;;;;7.70;99.90;;;;;;5119541;28;19915;-75
2022/11/10 07:04:43;;;;;;;;;;;7.70;99.90;;;;;;5103622;28;19908;-75
2022/11/10 07:07:09;;;;;;;;;;;7.70;99.90;;;;;;5093045;28;20011;-75
2022/11/10 07:09:35;;;;;;;;;;;7.70;99.90;;;;;;5097266;28;19908;-75
2022/11/10 07:12:00;;;;;;;;;;;7.70;99.90;;;;;;5103513;28;19915;-75
2022/11/10 07:14:26;;;;;;;;;;;7.80;99.90;;;;;;5103112;28;20524;-75
2022/11/10 07:16:52;;;;;;;;;;;7.80;99.90;;;;;;5103104;28;20207;-75
2022/11/10 07:19:17;;;;;;;;;;;7.90;99.90;;;;;;5103196;28;20104;-75
2022/11/10 07:21:45;;;;;;;;;;;7.90;99.90;;;;;;5102601;28;21295;-75
2022/11/10 07:24:11;;;;;;;;;;;7.90;99.90;;;;;;5103256;28;19939;-76
2022/11/10 07:26:36;;;;;;;;;;;8.00;99.90;;;;;;5103016;28;20195;-78
2022/11/10 07:29:02;;;;;;;;;;;8.10;99.90;;;;;;5068063;28;20215;-78
2022/11/10 07:31:28;;;;;;;;;;;8.10;99.90;;;;;;5085133;28;19914;-78
2022/11/10 07:33:53;;;;;;;;;;;8.10;99.90;;;;;;5103119;28;19908;-78
2022/11/10 07:36:19;;;;;;;;;;;8.20;99.90;;;;;;5102162;28;19923;-78
2022/11/10 07:38:44;;;;;;;;;;;8.20;99.90;;;;;;5102635;28;20207;-78
2022/11/10 07:41:10;;;;;;;;;;;8.20;99.90;;;;;;5084891;28;20149;-77
2022/11/10 07:43:36;;;;;;;;;;;8.30;99.90;;;;;;5084475;28;19908;-77
2022/11/10 07:46:01;;;;;;;;;;;8.40;99.90;;;;;;5102168;28;19912;-78
2022/11/10 07:48:27;;;;;;;;;;;8.50;99.90;;;;;;5084494;28;19908;-77
2022/11/10 07:50:53;;;;;;;;;;;8.60;99.90;;;;;;5084939;28;19918;-77
2022/11/10 07:53:19;;;;;;;;;;;8.60;99.90;;;;;;5068169;28;19973;-77
2022/11/10 07:55:44;;;;;;;;;;;8.70;99.90;;;;;;5068143;28;20199;-78
2022/11/10 07:58:12;;;;;;;;;;;8.60;99.90;;;;;;5084002;28;19983;-78
2022/11/10 08:00:38;;;;;;;;;;;8.70;99.90;;;;;;5084786;28;19912;-77
2022/11/10 08:03:05;;;;;;;;;;;8.70;99.90;;;;;;5084840;28;19923;-78
2022/11/10 08:05:31;;;;;;;;;;;8.80;99.90;;;;;;5084595;28;20132;-77
2022/11/10 08:07:57;;;;;;;;;;;8.90;99.90;;;;;;5102317;28;19915;-78
2022/11/10 08:10:22;;;;;;;;;;;9.00;99.90;;;;;;5102587;28;19971;-77
2022/11/10 08:12:58;;;;;;;;;;;9.20;99.90;;;;;;5084323;28;19943;-77
2022/11/10 08:15:24;;;;;;;;;;;9.30;99.90;;;;;;5068681;28;19995;-77
2022/11/10 08:17:50;;;;;;;;;;;9.40;99.90;;;;;;5084913;28;19919;-77
2022/11/10 08:20:16;;;;;;;;;;;9.50;99.90;;;;;;5067832;28;19916;-78
2022/11/10 08:22:42;;;;;;;;;;;9.60;99.90;;;;;;5084949;28;20178;-78
2022/11/10 08:25:08;;;;;;;;;;;9.70;99.90;;;;;;5084643;28;19915;-77
2022/11/10 08:27:33;;;;;;;;;;;9.80;99.90;;;;;;5084459;28;20198;-79
2022/11/10 08:29:59;;;;;;;;;;;9.90;99.90;;;;;;5102514;28;19983;-79
2022/11/10 08:32:24;;;;;;;;;;;9.90;99.90;;;;;;5073872;28;19912;-78
2022/11/10 08:34:51;;;;;;;;;;;10.00;99.90;;;;;;5073695;28;19908;-79
2022/11/10 08:37:16;;;;;;;;;;;10.00;99.90;;;;;;5084905;28;19940;-78
2022/11/10 08:39:42;;;;;;;;;;;10.10;99.90;;;;;;5081907;28;19924;-77
2022/11/10 08:42:08;;;;;;;;;;;10.10;99.90;;;;;;5047982;28;19962;-80
2022/11/10 08:44:33;;;;;;;;;;;10.20;99.90;;;;;;5082565;28;20178;-81
2022/11/10 08:46:59;;;;;;;;;;;10.20;99.90;;;;;;5099514;28;19943;-80
2022/11/10 08:49:25;;;;;;;;;;;10.20;99.90;;;;;;5104847;28;19940;-80
2022/11/10 08:51:50;;;;;;;;;;;10.20;99.90;;;;;;5107873;28;19908;-80
2022/11/10 08:54:16;;;;;;;;;;;10.30;99.90;;;;;;5089817;28;19908;-80
2022/11/10 08:56:42;;;;;;;;;;;10.30;99.90;;;;;;5106454;28;19908;-80
2022/11/10 08:59:07;;;;;;;;;;;10.30;99.90;;;;;;5106732;28;19916;-80
2022/11/10 09:01:33;;;;;;;;;;;10.40;99.90;;;;;;5107454;28;19927;-80
2022/11/10 09:03:58;;;;;;;;;;;10.30;99.90;;;;;;5107610;28;19916;-80
2022/11/10 09:06:24;;;;;;;;;;;10.30;99.90;;;;;;5107225;28;19916;-79
2022/11/10 09:08:50;;;;;;;;;;;10.30;99.90;;;;;;5071330;28;19915;-79
2022/11/10 09:11:15;;;;;;;;;;;10.30;99.90;;;;;;5105270;28;19923;-80
2022/11/10 09:13:41;;;;;;;;;;;10.30;99.90;;;;;;5105956;28;20226;-79
2022/11/10 09:16:07;;;;;;;;;;;10.30;99.90;;;;;;5087954;28;20111;-80
2022/11/10 09:18:32;;;;;;;;;;;10.30;99.90;;;;;;5106074;28;19918;-81
2022/11/10 09:20:58;;;;;;;;;;;10.30;99.90;;;;;;5088644;28;20000;-79
2022/11/10 09:23:25;;;;;;;;;;;10.30;99.90;;;;;;5054613;28;19916;-71
2022/11/10 09:25:52;;;;;;;;;;;10.50;99.90;;;;;;5105625;28;19983;-71
2022/11/10 09:28:18;;;;;;;;;;;10.60;99.90;;;;;;5070590;28;19908;-71
2022/11/10 09:30:50;;;;;;;;;;;10.80;99.90;;;;;;5105538;28;20107;-72
2022/11/10 09:33:15;;;;;;;;;;;11.00;99.90;;;;;;5087303;28;19908;-71
2022/11/10 09:35:41;;;;;;;;;;;11.10;99.90;;;;;;5087512;28;19908;-72
2022/11/10 09:38:07;;;;;;;;;;;11.30;99.90;;;;;;5070571;28;19908;-71
2022/11/10 09:40:47;;;;;;;;;;;11.50;99.90;;;;;;5105477;28;20190;-71
2022/11/10 09:43:20;;;;;;;;;;;11.70;99.90;;;;;;5088315;28;19974;-71
2022/11/10 09:45:46;;;;;;;;;;;11.90;99.90;;;;;;5105366;28;19908;-71
2022/11/10 09:48:18;;;;;;;;;;;12.00;99.90;;;;;;5070053;28;19908;-71
2022/11/10 09:50:48;;;;;;;;;;;12.20;99.90;;;;;;5070226;28;19986;-71
2022/11/10 09:53:21;;;;;;;;;;;12.30;99.90;;;;;;5104074;28;19926;-72
2022/11/10 09:56:05;;;;;;;;;;;12.40;99.90;;;;;;5087123;28;19915;-71
2022/11/10 09:58:38;;;;;;;;;;;12.50;99.90;;;;;;5070268;28;19908;-71
2022/11/10 10:01:25;;;;;;;;;;;12.60;99.90;;;;;;5086593;28;19992;-71
2022/11/10 10:04:00;;;;;;;;;;;12.70;99.90;;;;;;5087124;28;19915;-72
2022/11/10 10:06:26;;;;;;;;;;;12.70;99.90;;;;;;5087197;28;19980;-72
2022/11/10 10:08:51;;;;;;;;;;;12.80;99.90;;;;;;5104939;28;19908;-72
2022/11/10 10:11:40;;;;;;;;;;;12.80;99.90;;;;;;5104834;28;19914;-71
2022/11/10 10:14:28;;;;;;;;;;;12.90;99.90;;;;;;5104144;28;19908;-72
2022/11/10 10:17:11;;;;;;;;;;;13.00;99.90;;;;;;5103094;28;19930;-72
2022/11/10 10:19:40;;;;;;;;;;;13.10;99.90;;;;;;5086554;28;20250;-72
2022/11/10 10:22:30;;;;;;;;;;;13.30;99.90;;;;;;5103455;28;20238;-72
2022/11/10 10:24:56;;;;;;;;;;;13.40;99.90;;;;;;5104668;28;20218;-72
2022/11/10 10:27:24;;;;;;;;;;;13.50;99.90;;;;;;5086377;28;19908;-72
2022/11/10 10:29:50;;;;;;;;;;;13.50;99.90;;;;;;5104348;28;19908;-72
2022/11/10 10:32:16;;;;;;;;;;;13.60;99.90;;;;;;5086040;28;20103;-72
2022/11/10 10:34:42;;;;;;;;;;;13.70;99.90;;;;;;5104325;28;20017;-72
2022/11/10 10:37:24;;;;;;;;;;;13.70;99.90;;;;;;5068802;28;19915;-72
2022/11/10 10:39:51;;;;;;;;;;;13.80;99.90;;;;;;5104217;28;20169;-72
2022/11/10 10:42:24;;;;;;;;;;;13.70;99.90;;;;;;5086175;28;19949;-72
2022/11/10 10:45:18;;;;;;;;;;;13.50;99.90;;;;;;5086056;28;19938;-72
2022/11/10 10:47:44;;;;;;;;;;;13.40;99.90;;;;;;5103665;28;19911;-72
2022/11/10 10:50:20;;;;;;;;;;;13.30;99.90;;;;;;5104050;28;19944;-72
2022/11/10 10:53:04;;;;;;;;;;;13.20;99.90;;;;;;5086078;28;19908;-72
2022/11/10 10:55:30;;;;;;;;;;;13.10;99.90;;;;;;5086018;28;20218;-72
2022/11/10 10:58:00;;;;;;;;;;;13.30;99.90;;;;;;5103576;28;19908;-72
2022/11/10 11:00:25;;;;;;;;;;;13.30;99.90;;;;;;5085774;28;19919;-71
2022/11/10 11:03:28;;;;;;;;;;;13.40;99.90;;;;;;5103705;28;20381;-71
2022/11/10 11:06:01;;;;;;;;;;;13.50;99.90;;;;;;5021730;28;19909;-71
2022/11/10 11:08:27;;;;;;;;;;;13.50;99.90;;;;;;5073051;28;20226;-72
2022/11/10 11:10:52;;;;;;;;;;;13.50;99.90;;;;;;5065578;28;19940;-72
2022/11/10 11:13:25;;;;;;;;;;;13.50;99.90;;;;;;5082860;28;19947;-72
2022/11/10 11:15:57;;;;;;;;;;;13.50;99.90;;;;;;5065526;28;19946;-71
2022/11/10 11:18:23;;;;;;;;;;;13.40;99.90;;;;;;5081621;28;19913;-71
2022/11/10 11:21:19;;;;;;;;;;;13.40;99.90;;;;;;5081949;28;19927;-71
2022/11/10 11:24:01;;;;;;;;;;;13.20;99.90;;;;;;5060585;28;19912;-71
2022/11/10 11:26:37;;;;;;;;;;;13.10;99.90;;;;;;5065077;28;19950;-71
2022/11/10 11:29:13;;;;;;;;;;;13.00;99.90;;;;;;5083028;28;19946;-72
2022/11/10 11:32:24;;;;;;;;;;;13.00;99.90;;;;;;5048419;28;19940;-71
2022/11/10 11:35:11;;;;;;;;;;;13.00;99.90;;;;;;5044697;28;19930;-71
2022/11/10 11:38:13;;;;;;;;;;;13.00;99.90;;;;;;5082590;28;20002;-72
2022/11/10 11:40:55;;;;;;;;;;;13.10;99.90;;;;;;4982037;28;20492;-71
2022/11/10 11:43:37;;;;;;;;;;;13.20;99.90;;;;;;5073294;28;19920;-72
2022/11/10 11:46:38;;;;;;;;;;;13.20;99.90;;;;;;5064549;28;20273;-71
2022/11/10 11:49:32;;;;;;;;;;;13.40;99.90;;;;;;5029346;28;20484;-72
2022/11/10 11:52:00;;;;;;;;;;;13.60;99.90;;;;;;5082650;28;19944;-72
2022/11/10 11:54:29;;;;;;;;;;;13.90;99.90;;;;;;5082670;28;19931;-72
2022/11/10 11:56:59;;;;;;;;;;;14.10;99.90;;;;;;5081184;28;19954;-72
2022/11/10 11:59:34;;;;;;;;;;;14.20;99.90;;;;;;5064724;28;19916;-72
2022/11/10 12:02:19;;;;;;;;;;;14.10;99.90;;;;;;5082136;28;19920;-71
2022/11/10 12:04:45;;;;;;;;;;;14.00;99.90;;;;;;5066136;28;19912;-71
2022/11/10 12:07:41;;;;;;;;;;;13.90;99.90;;;;;;5099345;28;19962;-71
2022/11/10 12:10:26;;;;;;;;;;;13.80;99.90;;;;;;5100813;28;20192;-71
2022/11/10 12:12:57;;;;;;;;;;;13.90;99.90;;;;;;5095907;28;20434;-72
2022/11/10 12:15:35;;;;;;;;;;;14.60;99.90;;;;;;5093585;28;20017;-71
2022/11/10 12:18:31;;;;;;;;;;;15.70;99.90;;;;;;5077719;28;19912;-71
2022/11/10 12:21:06;;;;;;;;;;;16.70;99.90;;;;;;5065629;28;19920;-72
2022/11/10 12:24:08;;;;;;;;;;;16.90;99.90;;;;;;5074723;28;19912;-71
2022/11/10 12:26:57;;;;;;;;;;;16.70;99.90;;;;;;5099027;28;19920;-71
2022/11/10 12:29:51;;;;;;;;;;;16.40;99.90;;;;;;5097249;28;19924;-72
2022/11/10 12:32:38;;;;;;;;;;;16.10;99.90;;;;;;5078736;28;20187;-75
2022/11/10 12:35:28;;;;;;;;;;;16.80;99.90;;;;;;5080319;28;19931;-77
2022/11/10 12:38:09;;;;;;;;;;;18.30;99.90;;;;;;5088236;28;19987;-77
2022/11/10 12:40:43;;;;;;;;;;;19.70;99.90;;;;;;5107853;28;19913;-76
2022/11/10 12:43:27;;;;;;;;;;;20.80;99.90;;;;;;5107964;28;19979;-75
2022/11/10 12:45:56;;;;;;;;;;;21.60;99.90;;;;;;5117536;28;19908;-81
2022/11/10 12:48:21;;;;;;;;;;;22.30;99.90;;;;;;5112927;28;20229;-81
2022/11/10 12:51:03;;;;;;;;;;;23.00;98.10;;;;;;5096030;28;19908;-81
2022/11/10 12:53:34;;;;;;;;;;;23.80;94.00;;;;;;5096623;28;19930;-79
2022/11/10 12:56:19;;;;;;;;;;;24.20;83.30;;;;;;5113069;28;19908;-80
2022/11/10 12:58:45;;;;;;;;;;;24.80;80.90;;;;;;5105765;28;19916;-79
2022/11/10 13:01:19;;;;;;;;;;;25.50;77.20;;;;;;5078390;28;19912;-80
2022/11/10 13:03:56;;;;;;;;;;;25.60;73.10;;;;;;5112885;28;19908;-80
2022/11/10 13:06:34;;;;;;;;;;;25.90;68.70;;;;;;5076866;28;19908;-80
2022/11/10 13:09:00;;;;;;;;;;;25.80;67.10;;;;;;5081542;28;19916;-80
2022/11/10 13:11:35;;;;;;;;;;;25.60;63.50;;;;;;5073685;28;19951;-80
2022/11/10 13:14:27;;;;;;;;;;;25.20;65.60;;;;;;5057387;28;19908;-80
2022/11/10 13:16:54;;;;;;;;;;;24.70;67.70;;;;;;5072972;28;20211;-80
2022/11/10 13:19:20;;;;;;;;;;;24.00;72.60;;;;;;5091289;28;20215;-80
2022/11/10 13:21:51;;;;;;;;;;;23.10;75.40;;;;;;5091384;28;19947;-80
2022/11/10 13:24:43;;;;;;;;;;;22.30;81.20;;;;;;5091196;28;19946;-79
2022/11/10 13:27:10;;;;;;;;;;;21.20;84.10;;;;;;5070594;28;19916;-80
2022/11/10 13:29:41;;;;;;;;;;;20.30;91.10;;;;;;5087548;28;19916;-80
2022/11/10 13:32:07;;;;;;;;;;;19.70;94.10;;;;;;5110937;28;19908;-80
2022/11/10 13:34:34;;;;;;;;;;;19.20;96.90;;;;;;5110277;28;19961;-80
2022/11/10 13:37:00;;;;;;;;;;;18.80;98.60;;;;;;5107396;28;19916;-80
2022/11/10 13:39:29;;;;;;;;;;;18.40;99.90;;;;;;5087546;28;19943;-80
2022/11/10 13:42:06;;;;;;;;;;;18.00;99.90;;;;;;5072787;28;19920;-80
2022/11/10 13:44:36;;;;;;;;;;;17.60;99.90;;;;;;5107022;28;19908;-80
2022/11/10 13:47:07;;;;;;;;;;;17.30;99.90;;;;;;5072385;28;19971;-80
2022/11/10 13:50:18;;;;;;;;;;;16.90;99.90;;;;;;5084513;28;20084;-80
2022/11/10 13:52:50;;;;;;;;;;;16.70;99.90;;;;;;5086841;28;19912;-80
2022/11/10 13:55:24;;;;;;;;;;;16.50;99.90;;;;;;5086610;28;19939;-80
2022/11/10 13:57:59;;;;;;;;;;;16.20;99.90;;;;;;5086594;28;20230;-79
2022/11/10 14:00:30;;;;;;;;;;;15.90;99.90;;;;;;5069219;28;19920;-80
2022/11/10 14:02:57;;;;;;;;;;;15.80;99.90;;;;;;5069108;28;19916;-75
2022/11/10 14:05:29;;;;;;;;;;;15.60;99.90;;;;;;5083553;28;20080;-78
2022/11/10 14:08:07;;;;;;;;;;;15.40;99.90;;;;;;5084123;28;20236;-78
2022/11/10 14:11:01;;;;;;;;;;;15.20;99.90;;;;;;5084456;28;20026;-78
2022/11/10 14:13:36;;;;;;;;;;;15.10;99.90;;;;;;5063567;28;19916;-78
2022/11/10 14:16:02;;;;;;;;;;;14.90;99.90;;;;;;5083632;28;19951;-79
2022/11/10 14:18:56;;;;;;;;;;;14.70;99.90;;;;;;5065946;28;19912;-79
2022/11/10 14:21:28;;;;;;;;;;;14.60;99.90;;;;;;5083915;28;19987;-76
2022/11/10 14:24:09;;;;;;;;;;;14.40;99.90;;;;;;5065898;28;19954;-76
2022/11/10 14:26:41;;;;;;;;;;;14.40;99.90;;;;;;5099350;28;19909;-77
2022/11/10 14:29:38;;;;;;;;;;;14.30;99.90;;;;;;5057646;28;19924;-77
2022/11/10 14:32:12;;;;;;;;;;;14.30;99.90;;;;;;5086175;28;19922;-77
2022/11/10 14:34:43;;;;;;;;;;;14.30;99.90;;;;;;5069210;28;20196;-77
2022/11/10 14:37:30;;;;;;;;;;;14.20;99.90;;;;;;5069470;28;19983;-77
2022/11/10 14:39:59;;;;;;;;;;;14.10;99.90;;;;;;5085165;28;19923;-78
2022/11/10 14:42:30;;;;;;;;;;;14.10;99.90;;;;;;5086056;28;20203;-77
2022/11/10 14:45:07;;;;;;;;;;;14.00;99.90;;;;;;5085839;28;19951;-77
2022/11/10 14:47:32;;;;;;;;;;;14.00;99.90;;;;;;5067544;28;19915;-78
2022/11/10 14:50:25;;;;;;;;;;;13.90;99.90;;;;;;5085398;28;19908;-78
2022/11/10 14:52:54;;;;;;;;;;;13.80;99.90;;;;;;5098918;28;19933;-79